Wetterstation Vordersexau
Wetterdaten: Woche 23.11.15 - 29.11.15 (KW48)
Datum Zeit Temp. A. Feuchte A. Luftdruck Regen Wind Richtung Taupunkt Windchill Windben
23.11.2015 00:00 0,8 C 89 % 1013,7 hPa 0,0 l/m 0,0 km/h O -0,8 C 0,8 C 0,0 km/h
23.11.2015 01:00 1,1 C 88 % 1014,4 hPa 0,0 l/m 0,0 km/h W -0,7 C 1,1 C 0,0 km/h
23.11.2015 02:00 0,4 C 89 % 1015,1 hPa 0,4 l/m 0,0 km/h W -1,2 C 0,4 C 0,0 km/h
23.11.2015 03:00 0,4 C 88 % 1015,5 hPa 0,0 l/m 0,0 km/h W -1,3 C 0,4 C 0,0 km/h
23.11.2015 04:00 0,6 C 88 % 1015,9 hPa 0,0 l/m 0,0 km/h W -1,2 C 0,6 C 0,0 km/h
23.11.2015 05:00 0,8 C 88 % 1016,3 hPa 0,4 l/m 0,0 km/h W -1,0 C 0,8 C 0,0 km/h
23.11.2015 06:00 1,1 C 87 % 1017,3 hPa 0,0 l/m 0,0 km/h W -0,8 C 1,1 C 0,0 km/h
23.11.2015 07:00 1,0 C 87 % 1018,1 hPa 0,0 l/m 0,0 km/h W -0,9 C 1,0 C 0,0 km/h
23.11.2015 08:00 1,5 C 87 % 1019,2 hPa 0,4 l/m 0,0 km/h W -0,4 C 1,5 C 0,0 km/h
23.11.2015 09:00 1,4 C 87 % 1019,8 hPa 0,0 l/m 0,0 km/h SO -0,5 C 1,4 C 0,0 km/h
23.11.2015 10:00 7,6 C 88 % 1020,8 hPa 0,0 l/m 0,0 km/h W-NW 5,7 C 7,6 C 0,0 km/h
23.11.2015 11:00 9,1 C 74 % 1020,7 hPa 0,0 l/m 0,0 km/h N-NO 4,7 C 9,1 C 0,0 km/h
23.11.2015 12:00 8,8 C 60 % 1020,6 hPa 0,0 l/m 0,0 km/h N-NO 1,5 C 8,8 C 0,0 km/h
23.11.2015 13:00 8,1 C 69 % 1021,1 hPa 0,4 l/m 0,0 km/h N-NO 2,8 C 8,1 C 0,0 km/h
23.11.2015 14:00 12,1 C 53 % 1020,9 hPa 0,0 l/m 0,0 km/h N-NO 2,8 C 12,1 C 0,0 km/h
23.11.2015 15:00 13,4 C 51 % 1021,5 hPa 0,0 l/m 6,5 km/h N-NO 3,5 C 13,4 C 3,6 km/h
23.11.2015 16:00 2,9 C 72 % 1021,7 hPa 0,0 l/m 0,0 km/h N-NO -1,6 C 2,9 C 0,0 km/h
23.11.2015 17:00 -0,2 C 81 % 1022,3 hPa 0,0 l/m 0,0 km/h N-NO -3,1 C -0,2 C 0,0 km/h
23.11.2015 18:00 -1,2 C 84 % 1022,7 hPa 0,0 l/m 0,0 km/h O-SO -3,5 C -1,2 C 0,0 km/h
23.11.2015 19:00 -1,5 C 86 % 1023,2 hPa 0,0 l/m 0,0 km/h O-SO -3,5 C -1,5 C 0,0 km/h
23.11.2015 20:00 -1,4 C 88 % 1023,5 hPa 0,0 l/m 0,0 km/h SO -3,1 C -1,4 C 0,0 km/h
23.11.2015 21:00 -1,7 C 88 % 1023,6 hPa 0,0 l/m 0,0 km/h SO -3,4 C -1,7 C 0,0 km/h
23.11.2015 22:00 -2,2 C 89 % 1023,3 hPa 0,0 l/m 0,0 km/h SO -3,8 C -2,2 C 0,0 km/h
23.11.2015 23:00 -2,7 C 88 % 1023,4 hPa 0,0 l/m 0,0 km/h O-SO -4,4 C -2,7 C 0,0 km/h
24.11.2015 00:00 -2,6 C 89 % 1023,0 hPa 0,0 l/m 0,0 km/h O-SO -4,2 C -2,6 C 0,0 km/h
24.11.2015 01:00 -3,4 C 89 % 1023,4 hPa 0,0 l/m 0,0 km/h O-SO -4,9 C -3,4 C 0,0 km/h
24.11.2015 02:00 -3,3 C 89 % 1023,1 hPa 0,0 l/m 0,0 km/h O-SO -4,8 C -3,3 C 0,0 km/h
24.11.2015 03:00 -4,1 C 89 % 1023,1 hPa 0,0 l/m 0,0 km/h SO -5,6 C -4,1 C 0,0 km/h
24.11.2015 04:00 -4,1 C 89 % 1022,8 hPa 0,0 l/m 0,0 km/h SO -5,6 C -4,1 C 0,0 km/h
24.11.2015 05:00 -4,2 C 89 % 1022,5 hPa 0,0 l/m 0,0 km/h SO -5,7 C -4,2 C 0,0 km/h
24.11.2015 06:00 -4,2 C 89 % 1022,6 hPa 0,0 l/m 0,0 km/h SO -5,7 C -4,2 C 0,0 km/h
24.11.2015 07:00 -4,7 C 89 % 1022,5 hPa 0,0 l/m 0,0 km/h W-NW -6,2 C -4,7 C 0,0 km/h
24.11.2015 08:00 -1,4 C 87 % 1022,5 hPa 0,0 l/m 0,0 km/h S-SO -3,3 C -1,4 C 0,0 km/h
24.11.2015 09:00 3,8 C 86 % 1022,2 hPa 0,0 l/m 0,0 km/h S-SO 1,7 C 3,8 C 0,0 km/h
24.11.2015 10:00 7,3 C 75 % 1021,9 hPa 0,0 l/m 0,0 km/h SW 3,2 C 7,3 C 0,0 km/h
24.11.2015 11:00 7,5 C 67 % 1021,2 hPa 0,0 l/m 0,0 km/h W 1,8 C 7,5 C 0,0 km/h
24.11.2015 12:00 5,9 C 69 % 1020,3 hPa 0,0 l/m 0,0 km/h W 0,7 C 5,9 C 0,0 km/h
24.11.2015 13:00 4,9 C 70 % 1019,6 hPa 0,0 l/m 0,0 km/h S-SW -0,1 C 4,9 C 0,0 km/h
24.11.2015 14:00 4,1 C 72 % 1018,6 hPa 0,0 l/m 0,0 km/h S-SW -0,5 C 4,1 C 0,0 km/h
24.11.2015 15:00 3,6 C 71 % 1018,2 hPa 0,0 l/m 1,9 km/h SW -1,2 C 3,6 C 1,1 km/h
24.11.2015 16:00 2,5 C 71 % 1017,5 hPa 0,0 l/m 4,5 km/h S -2,2 C 2,5 C 2,5 km/h
24.11.2015 17:00 3,0 C 68 % 1016,8 hPa 0,0 l/m 0,0 km/h W-SW -2,3 C 3,0 C 0,0 km/h
24.11.2015 18:00 2,8 C 69 % 1016,5 hPa 0,0 l/m 10,4 km/h SW -2,3 C -0,7 C 5,8 km/h
24.11.2015 19:00 3,6 C 63 % 1015,5 hPa 0,0 l/m 11,0 km/h S-SW -2,8 C -0,2 C 6,1 km/h
24.11.2015 20:00 4,0 C 59 % 1014,5 hPa 0,0 l/m 7,8 km/h SW -3,3 C 2,7 C 4,3 km/h
24.11.2015 21:00 4,4 C 55 % 1013,8 hPa 0,0 l/m 8,4 km/h W-SW -3,8 C 2,6 C 4,7 km/h
24.11.2015 22:00 4,4 C 55 % 1013,1 hPa 0,0 l/m 22,7 km/h SO -3,8 C -5,0 C 12,6 km/h
24.11.2015 23:00 2,1 C 76 % 1012,4 hPa 0,0 l/m 19,4 km/h S-SW -1,7 C -6,7 C 10,8 km/h
25.11.2015 00:00 1,3 C 80 % 1011,9 hPa 0,0 l/m 7,1 km/h S -1,8 C 0,6 C 4,0 km/h
25.11.2015 01:00 0,6 C 85 % 1011,1 hPa 0,0 l/m 1,9 km/h S -1,6 C 0,6 C 1,1 km/h
25.11.2015 02:00 0,5 C 87 % 1010,7 hPa 0,0 l/m 0,0 km/h S -1,4 C 0,5 C 0,0 km/h
25.11.2015 03:00 0,4 C 88 % 1009,8 hPa 0,0 l/m 0,0 km/h W-SW -1,3 C 0,4 C 0,0 km/h
25.11.2015 04:00 1,4 C 88 % 1009,2 hPa 1,2 l/m 4,5 km/h SW -0,4 C 1,4 C 2,5 km/h
25.11.2015 05:00 1,9 C 88 % 1009,1 hPa 2,1 l/m 20,1 km/h SW 0,1 C -7,2 C 11,2 km/h
25.11.2015 06:00 2,2 C 88 % 1008,9 hPa 1,2 l/m 0,0 km/h S 0,4 C 2,2 C 0,0 km/h
25.11.2015 07:00 2,2 C 88 % 1008,8 hPa 1,2 l/m 0,0 km/h W-SW 0,4 C 2,2 C 0,0 km/h
25.11.2015 08:00 2,7 C 89 % 1008,6 hPa 0,4 l/m 0,0 km/h W-SW 1,1 C 2,7 C 0,0 km/h
25.11.2015 09:00 3,9 C 88 % 1008,1 hPa 0,0 l/m 1,9 km/h W 2,1 C 3,9 C 1,1 km/h
25.11.2015 10:00 4,2 C 88 % 1008,2 hPa 0,0 l/m 5,2 km/h SW 2,4 C 4,2 C 2,9 km/h
25.11.2015 11:00 5,6 C 87 % 1007,6 hPa 0,0 l/m 5,2 km/h W 3,6 C 5,6 C 2,9 km/h
25.11.2015 12:00 6,5 C 85 % 1006,7 hPa 0,0 l/m 18,8 km/h W-NW 4,2 C -0,8 C 10,4 km/h
25.11.2015 13:00 5,8 C 85 % 1006,1 hPa 0,4 l/m 11,7 km/h SW 3,5 C 1,9 C 6,5 km/h
25.11.2015 14:00 5,3 C 87 % 1005,8 hPa 0,0 l/m 0,0 km/h S-SO 3,3 C 5,3 C 0,0 km/h
25.11.2015 15:00 4,9 C 87 % 1005,7 hPa 0,0 l/m 0,0 km/h SO 2,9 C 4,9 C 0,0 km/h
25.11.2015 16:00 4,1 C 88 % 1005,8 hPa 0,0 l/m 0,0 km/h SO 2,3 C 4,1 C 0,0 km/h
25.11.2015 17:00 3,5 C 88 % 1005,4 hPa 0,0 l/m 0,0 km/h O-SO 1,7 C 3,5 C 0,0 km/h
25.11.2015 18:00 2,9 C 89 % 1005,7 hPa 0,0 l/m 0,0 km/h O-SO 1,3 C 2,9 C 0,0 km/h
25.11.2015 19:00 2,8 C 89 % 1005,7 hPa 0,0 l/m 0,0 km/h O-SO 1,2 C 2,8 C 0,0 km/h
25.11.2015 20:00 3,1 C 89 % 1006,1 hPa 0,4 l/m 0,0 km/h N-NO 1,5 C 3,1 C 0,0 km/h
25.11.2015 21:00 3,1 C 88 % 1006,2 hPa 0,8 l/m 0,0 km/h SO 1,3 C 3,1 C 0,0 km/h
25.11.2015 22:00 2,9 C 88 % 1006,2 hPa 0,4 l/m 0,0 km/h SO 1,1 C 2,9 C 0,0 km/h
25.11.2015 23:00 2,8 C 88 % 1006,6 hPa 0,4 l/m 0,0 km/h SO 1,0 C 2,8 C 0,0 km/h
26.11.2015 00:00 2,7 C 88 % 1007,3 hPa 0,0 l/m 0,0 km/h SO 0,9 C 2,7 C 0,0 km/h
26.11.2015 01:00 2,7 C 88 % 1007,5 hPa 0,0 l/m 0,0 km/h SO 0,9 C 2,7 C 0,0 km/h
26.11.2015 02:00 2,7 C 88 % 1008,2 hPa 0,0 l/m 0,0 km/h SO 0,9 C 2,7 C 0,0 km/h
26.11.2015 03:00 2,8 C 88 % 1008,6 hPa 0,4 l/m 0,0 km/h SO 1,0 C 2,8 C 0,0 km/h
26.11.2015 04:00 2,8 C 88 % 1009,2 hPa 0,0 l/m 0,0 km/h SO 1,0 C 2,8 C 0,0 km/h
26.11.2015 05:00 2,9 C 88 % 1009,6 hPa 0,4 l/m 0,0 km/h SO 1,1 C 2,9 C 0,0 km/h
26.11.2015 06:00 2,9 C 87 % 1010,4 hPa 0,0 l/m 0,0 km/h SO 1,0 C 2,9 C 0,0 km/h
26.11.2015 07:00 2,9 C 87 % 1011,4 hPa 0,4 l/m 0,0 km/h SO 1,0 C 2,9 C 0,0 km/h
26.11.2015 08:00 3,1 C 87 % 1012,1 hPa 0,0 l/m 0,0 km/h SO 1,2 C 3,1 C 0,0 km/h
26.11.2015 09:00 3,3 C 86 % 1013,0 hPa 0,4 l/m 0,0 km/h O-SO 1,2 C 3,3 C 0,0 km/h
26.11.2015 10:00 3,4 C 87 % 1013,6 hPa 0,4 l/m 0,0 km/h SO 1,4 C 3,4 C 0,0 km/h
26.11.2015 11:00 3,6 C 87 % 1013,8 hPa 0,0 l/m 0,0 km/h SO 1,6 C 3,6 C 0,0 km/h
26.11.2015 12:00 4,2 C 88 % 1014,1 hPa 0,4 l/m 0,0 km/h S-SO 2,4 C 4,2 C 0,0 km/h
26.11.2015 13:00 4,8 C 88 % 1014,4 hPa 0,0 l/m 0,0 km/h S-SO 3,0 C 4,8 C 0,0 km/h
26.11.2015 14:00 5,8 C 89 % 1014,5 hPa 0,0 l/m 0,0 km/h SO 4,1 C 5,8 C 0,0 km/h
26.11.2015 15:00 5,1 C 88 % 1015,4 hPa 0,0 l/m 0,0 km/h SO 3,3 C 5,1 C 0,0 km/h
26.11.2015 16:00 4,4 C 89 % 1016,0 hPa 0,0 l/m 0,0 km/h SO 2,7 C 4,4 C 0,0 km/h
26.11.2015 17:00 3,6 C 89 % 1016,9 hPa 0,0 l/m 0,0 km/h SO 2,0 C 3,6 C 0,0 km/h
26.11.2015 18:00 3,2 C 89 % 1017,4 hPa 0,0 l/m 0,0 km/h SO 1,6 C 3,2 C 0,0 km/h
26.11.2015 19:00 3,0 C 89 % 1017,8 hPa 0,0 l/m 0,0 km/h SO 1,4 C 3,0 C 0,0 km/h
26.11.2015 20:00 3,0 C 89 % 1018,3 hPa 0,0 l/m 0,0 km/h SO 1,4 C 3,0 C 0,0 km/h
26.11.2015 21:00 3,0 C 89 % 1018,6 hPa 0,0 l/m 0,0 km/h O 1,4 C 3,0 C 0,0 km/h
26.11.2015 22:00 0,9 C 88 % 1018,5 hPa 0,0 l/m 0,0 km/h O -0,9 C 0,9 C 0,0 km/h
26.11.2015 23:00 0,9 C 88 % 1018,6 hPa 0,0 l/m 0,0 km/h O -0,9 C 0,9 C 0,0 km/h
27.11.2015 00:00 -0,9 C 88 % 1018,4 hPa 0,0 l/m 0,0 km/h O -2,6 C -0,9 C 0,0 km/h
27.11.2015 01:00 -1,0 C 88 % 1018,6 hPa 0,0 l/m 0,0 km/h O -2,7 C -1,0 C 0,0 km/h
27.11.2015 02:00 -1,5 C 88 % 1018,3 hPa 0,0 l/m 0,0 km/h O -3,2 C -1,5 C 0,0 km/h
27.11.2015 03:00 -1,5 C 88 % 1017,9 hPa 0,0 l/m 0,0 km/h O -3,2 C -1,5 C 0,0 km/h
27.11.2015 04:00 -2,5 C 89 % 1017,8 hPa 0,0 l/m 0,0 km/h O -4,1 C -2,5 C 0,0 km/h
27.11.2015 05:00 -1,7 C 88 % 1017,8 hPa 0,0 l/m 0,0 km/h O -3,4 C -1,7 C 0,0 km/h
27.11.2015 06:00 -1,9 C 88 % 1017,5 hPa 0,0 l/m 0,0 km/h O -3,6 C -1,9 C 0,0 km/h
27.11.2015 07:00 -1,9 C 87 % 1017,7 hPa 0,0 l/m 0,0 km/h O -3,8 C -1,9 C 0,0 km/h
27.11.2015 08:00 -1,7 C 87 % 1017,9 hPa 0,0 l/m 0,0 km/h O -3,6 C -1,7 C 0,0 km/h
27.11.2015 09:00 -1,0 C 87 % 1017,5 hPa 0,0 l/m 0,0 km/h O -2,9 C -1,0 C 0,0 km/h
27.11.2015 10:00 -0,5 C 87 % 1017,4 hPa 0,0 l/m 0,0 km/h O -2,4 C -0,5 C 0,0 km/h
27.11.2015 11:00 -0,1 C 86 % 1017,0 hPa 0,0 l/m 0,0 km/h O -2,2 C -0,1 C 0,0 km/h
27.11.2015 12:00 0,4 C 87 % 1016,1 hPa 0,0 l/m 0,0 km/h O -1,5 C 0,4 C 0,0 km/h
27.11.2015 13:00 0,7 C 86 % 1015,7 hPa 0,0 l/m 0,0 km/h O -1,4 C 0,7 C 0,0 km/h
27.11.2015 14:00 0,3 C 87 % 1015,5 hPa 0,0 l/m 0,0 km/h O -1,6 C 0,3 C 0,0 km/h
27.11.2015 15:00 0,3 C 87 % 1015,0 hPa 0,0 l/m 0,0 km/h O -1,6 C 0,3 C 0,0 km/h
27.11.2015 16:00 0,3 C 86 % 1014,8 hPa 0,0 l/m 0,0 km/h O -1,8 C 0,3 C 0,0 km/h
27.11.2015 17:00 0,3 C 86 % 1014,5 hPa 0,0 l/m 0,0 km/h O -1,8 C 0,3 C 0,0 km/h
27.11.2015 18:00 0,1 C 86 % 1014,4 hPa 0,4 l/m 0,0 km/h O -2,0 C 0,1 C 0,0 km/h
27.11.2015 19:00 -0,1 C 86 % 1014,5 hPa 0,0 l/m 0,0 km/h O -2,2 C -0,1 C 0,0 km/h
27.11.2015 20:00 0,1 C 86 % 1014,4 hPa 0,0 l/m 0,0 km/h O -2,0 C 0,1 C 0,0 km/h
27.11.2015 21:00 0,1 C 86 % 1013,9 hPa 0,0 l/m 0,0 km/h O -2,0 C 0,1 C 0,0 km/h
27.11.2015 22:00 0,1 C 86 % 1013,2 hPa 0,0 l/m 0,0 km/h O -2,0 C 0,1 C 0,0 km/h
27.11.2015 23:00 -0,4 C 86 % 1013,0 hPa 0,0 l/m 0,0 km/h O -2,4 C -0,4 C 0,0 km/h
28.11.2015 00:00 -0,7 C 87 % 1012,9 hPa 0,0 l/m 0,0 km/h O -2,6 C -0,7 C 0,0 km/h
28.11.2015 01:00 -1,1 C 87 % 1012,5 hPa 0,0 l/m 0,0 km/h O -3,0 C -1,1 C 0,0 km/h
28.11.2015 02:00 -1,0 C 87 % 1012,3 hPa 0,0 l/m 0,0 km/h O -2,9 C -1,0 C 0,0 km/h
28.11.2015 03:00 -0,7 C 87 % 1011,7 hPa 0,0 l/m 0,0 km/h O -2,6 C -0,7 C 0,0 km/h
28.11.2015 04:00 -0,3 C 87 % 1011,2 hPa 0,0 l/m 0,0 km/h O -2,2 C -0,3 C 0,0 km/h
28.11.2015 05:00 0,2 C 87 % 1010,9 hPa 0,0 l/m 0,0 km/h S -1,7 C 0,2 C 0,0 km/h
28.11.2015 06:00 1,6 C 88 % 1011,3 hPa 0,0 l/m 7,8 km/h W-SW -0,2 C 0,2 C 4,3 km/h
28.11.2015 07:00 1,8 C 88 % 1011,9 hPa 0,4 l/m 9,1 km/h W-SW 0,0 C -0,7 C 5,0 km/h
28.11.2015 08:00 2,1 C 88 % 1013,1 hPa 0,4 l/m 12,3 km/h SW 0,3 C -2,8 C 6,8 km/h
28.11.2015 09:00 2,8 C 89 % 1014,1 hPa 0,0 l/m 16,2 km/h W-NW 1,2 C -4,2 C 9,0 km/h
28.11.2015 10:00 3,3 C 89 % 1015,6 hPa 0,0 l/m 9,1 km/h SW 1,7 C 0,9 C 5,0 km/h
28.11.2015 11:00 4,2 C 90 % 1016,2 hPa 0,4 l/m 5,8 km/h SW 2,7 C 4,2 C 3,2 km/h
28.11.2015 12:00 4,7 C 88 % 1016,4 hPa 0,0 l/m 8,4 km/h S-SW 2,9 C 3,0 C 4,7 km/h
28.11.2015 13:00 5,6 C 86 % 1017,0 hPa 0,0 l/m 11,0 km/h N 3,4 C 2,1 C 6,1 km/h
28.11.2015 14:00 5,9 C 85 % 1017,8 hPa 0,0 l/m 0,0 km/h W-NW 3,6 C 5,9 C 0,0 km/h
28.11.2015 15:00 5,5 C 87 % 1018,4 hPa 0,4 l/m 0,0 km/h W-SW 3,5 C 5,5 C 0,0 km/h
28.11.2015 16:00 4,5 C 86 % 1019,1 hPa 0,0 l/m 0,0 km/h SW 2,4 C 4,5 C 0,0 km/h
28.11.2015 17:00 2,5 C 88 % 1019,8 hPa 0,0 l/m 1,9 km/h S 0,7 C 2,5 C 1,1 km/h
28.11.2015 18:00 2,7 C 87 % 1020,3 hPa 0,0 l/m 0,0 km/h S-SO 0,8 C 2,7 C 0,0 km/h
28.11.2015 19:00 2,5 C 87 % 1020,4 hPa 0,0 l/m 0,0 km/h S 0,6 C 2,5 C 0,0 km/h
28.11.2015 20:00 3,0 C 87 % 1020,7 hPa 0,0 l/m 0,0 km/h W-SW 1,1 C 3,0 C 0,0 km/h
28.11.2015 21:00 3,8 C 83 % 1020,9 hPa 0,0 l/m 8,4 km/h W-SW 1,2 C 2,0 C 4,7 km/h
28.11.2015 22:00 4,5 C 80 % 1020,9 hPa 0,0 l/m 18,1 km/h W-SW 1,4 C -3,0 C 10,1 km/h
28.11.2015 23:00 4,9 C 78 % 1020,8 hPa 0,0 l/m 20,7 km/h SW 1,4 C -3,6 C 11,5 km/h
29.11.2015 00:00 4,9 C 77 % 1020,4 hPa 0,0 l/m 16,8 km/h SW 1,2 C -1,9 C 9,4 km/h
29.11.2015 01:00 5,1 C 76 % 1021,0 hPa 0,0 l/m 24,0 km/h W 1,2 C -4,5 C 13,3 km/h
29.11.2015 02:00 5,3 C 75 % 1020,1 hPa 0,0 l/m 8,4 km/h SW 1,2 C 3,6 C 4,7 km/h
29.11.2015 03:00 5,3 C 74 % 1019,7 hPa 0,0 l/m 24,6 km/h S 1,0 C -4,4 C 13,7 km/h
29.11.2015 04:00 5,4 C 73 % 1019,4 hPa 0,0 l/m 12,3 km/h W-SW 1,0 C 1,0 C 6,8 km/h
29.11.2015 05:00 5,6 C 74 % 1019,1 hPa 0,0 l/m 36,9 km/h W 1,3 C -7,1 C 20,5 km/h
29.11.2015 06:00 5,7 C 77 % 1018,8 hPa 0,0 l/m 9,7 km/h W-SW 2,0 C 3,1 C 5,4 km/h
29.11.2015 07:00 6,1 C 79 % 1018,7 hPa 0,0 l/m 14,9 km/h SW 2,7 C 0,5 C 8,3 km/h
29.11.2015 08:00 6,8 C 79 % 1019,2 hPa 0,0 l/m 21,4 km/h SW 3,4 C -1,3 C 11,9 km/h
29.11.2015 09:00 6,9 C 80 % 1019,6 hPa 0,0 l/m 42,1 km/h W-SW 3,7 C -6,0 C 23,4 km/h
29.11.2015 10:00 6,9 C 82 % 1019,9 hPa 0,0 l/m 20,1 km/h W 4,0 C -0,8 C 11,2 km/h
29.11.2015 11:00 7,5 C 82 % 1019,7 hPa 0,0 l/m 36,9 km/h W-SW 4,6 C -4,3 C 20,5 km/h
29.11.2015 12:00 7,8 C 83 % 1019,7 hPa 0,0 l/m 21,4 km/h SW 5,1 C -0,0 C 11,9 km/h
29.11.2015 13:00 8,2 C 83 % 1019,8 hPa 0,0 l/m 18,8 km/h SW 5,5 C 1,4 C 10,4 km/h
29.11.2015 14:00 8,8 C 83 % 1019,9 hPa 0,0 l/m 29,8 km/h W 6,1 C -1,0 C 16,6 km/h
29.11.2015 15:00 8,8 C 84 % 1020,4 hPa 0,0 l/m 33,7 km/h SW 6,2 C -1,8 C 18,7 km/h
29.11.2015 16:00 8,7 C 84 % 1020,4 hPa 0,0 l/m 24,0 km/h SW 6,2 C 0,4 C 13,3 km/h
29.11.2015 17:00 8,9 C 84 % 1020,4 hPa 0,0 l/m 14,9 km/h W-SW 6,3 C 3,8 C 8,3 km/h
29.11.2015 18:00 8,4 C 86 % 1021,5 hPa 0,0 l/m 27,9 km/h W-SW 6,2 C -1,1 C 15,5 km/h
29.11.2015 19:00 9,2 C 84 % 1021,1 hPa 0,0 l/m 26,6 km/h S-SW 6,6 C 0,3 C 14,8 km/h
29.11.2015 20:00 9,4 C 83 % 1021,8 hPa 0,0 l/m 33,7 km/h SW 6,7 C -0,9 C 18,7 km/h
29.11.2015 21:00 10,2 C 80 % 1021,8 hPa 0,0 l/m 22,7 km/h SW 6,9 C 2,7 C 12,6 km/h
29.11.2015 22:00 10,4 C 77 % 1021,7 hPa 0,0 l/m 32,4 km/h SW 6,5 C 0,7 C 18,0 km/h
29.11.2015 23:00 9,7 C 83 % 1022,1 hPa 0,0 l/m 30,5 km/h SW 7,0 C 0,1 C 16,9 km/h
Min-Datum _ 24.11.15 23.11.15 25.11.15 - 23.11.15 - 24.11.15 25.11.15 23.11.15
_ Min-Zeit 07:42 15:42 17:42 - 00:42 - 07:42 05:42 00:42
Minimum _ -4,7 C 51 % 1005,4 hPa - 0,0 km/h - -6,2 C -7,2 C 0,0 km/h
Max-Datum _ 23.11.15 28.11.15 23.11.15 25.11.15 29.11.15 - 29.11.15 23.11.15 29.11.15
_ Max-Zeit 15:42 11:42 21:42 05:42 09:42 - 23:42 15:42 09:42
Maximum _ 13,4 C 90 % 1023,6 hPa 2,1 l/m 42,1 km/h
W-SW
- 7,0 C 13,4 C 23,4 km/h
W-SW
Durchschnitt _ 2,8 C 84 % 1016,1 hPa #14,9 l/m 5,3 km/h O 0,3 C 1,1 C 2,9 km/h
www.sexauwetter.de